Time;durP1;ratioP1;P1;durP2;ratioP2;P2;SDS_P1;SDS_P2;PMS_P1;PMS_P2;Temp;Humidity;BMP_temperature;BMP_pressure;BME280_temperature;BME280_humidity;BME280_pressure;Samples;Min_cycle;Max_cycle;Signal;HPM_P1;HPM_P2
2020/12/11 00:01:34;;;;;;;19.00;15.15;;;5.10;93.80;;;;;;5014657;28;20186;-73
2020/12/11 00:04:00;;;;;;;18.10;12.75;;;5.00;93.80;;;;;;5013033;28;20635;-75
2020/12/11 00:06:26;;;;;;;19.40;14.25;;;4.80;93.50;;;;;;5014494;28;20522;-73
2020/12/11 00:08:52;;;;;;;19.67;14.60;;;5.00;93.80;;;;;;5014316;28;20183;-73
2020/12/11 00:11:18;;;;;;;19.63;14.73;;;5.10;93.80;;;;;;5013384;28;20471;-73
2020/12/11 00:13:44;;;;;;;20.33;14.10;;;4.80;93.60;;;;;;5014337;28;20199;-73
2020/12/11 00:16:10;;;;;;;22.55;15.52;;;4.70;93.70;;;;;;5012392;28;20266;-73
2020/12/11 00:18:36;;;;;;;22.20;15.87;;;4.90;94.20;;;;;;5014084;28;20209;-73
2020/12/11 00:21:02;;;;;;;19.83;14.48;;;5.00;94.40;;;;;;5013602;28;20888;-73
2020/12/11 00:23:28;;;;;;;25.83;16.58;;;4.80;93.70;;;;;;5014347;28;20182;-73
2020/12/11 00:25:58;;;;;;;19.33;14.93;;;4.80;94.00;;;;;;5012902;28;20219;-73
2020/12/11 00:28:33;;;;;;;21.83;15.40;;;4.70;94.20;;;;;;5014089;28;20269;-73
2020/12/11 00:30:59;;;;;;;22.15;15.80;;;4.60;94.60;;;;;;5010925;28;20212;-74
2020/12/11 00:33:25;;;;;;;22.73;16.20;;;4.70;94.80;;;;;;5008512;28;20250;-73
2020/12/11 00:35:51;;;;;;;22.27;14.70;;;4.80;94.70;;;;;;5014656;28;20737;-73
2020/12/11 00:38:18;;;;;;;21.65;15.63;;;4.80;94.60;;;;;;5011760;28;20182;-73
2020/12/11 00:40:44;;;;;;;23.38;17.52;;;4.40;94.60;;;;;;5013817;28;20179;-73
2020/12/11 00:43:10;;;;;;;22.97;15.83;;;4.20;95.00;;;;;;5012756;28;20585;-73
2020/12/11 00:45:36;;;;;;;20.50;15.43;;;3.90;95.80;;;;;;5013630;28;20536;-73
2020/12/11 00:48:02;;;;;;;22.17;16.57;;;4.00;96.50;;;;;;5012981;28;20268;-74
2020/12/11 00:50:28;;;;;;;24.20;14.95;;;3.80;96.20;;;;;;5013568;28;20173;-73
2020/12/11 00:52:53;;;;;;;21.23;15.27;;;3.80;96.80;;;;;;5013336;28;20216;-73
2020/12/11 00:55:21;;;;;;;20.53;14.37;;;3.50;97.00;;;;;;5012874;28;20213;-73
2020/12/11 00:57:49;;;;;;;21.20;15.45;;;3.50;97.60;;;;;;5013521;28;20182;-73
2020/12/11 01:00:17;;;;;;;21.70;15.32;;;3.70;98.20;;;;;;5011920;28;20625;-74
2020/12/11 01:02:43;;;;;;;20.40;15.20;;;3.90;97.70;;;;;;5013060;28;20174;-73
2020/12/11 01:05:09;;;;;;;18.80;13.50;;;4.20;97.70;;;;;;5012113;28;20536;-73
2020/12/11 01:07:34;;;;;;;21.00;15.77;;;4.30;97.10;;;;;;5010909;28;20175;-73
2020/12/11 01:10:00;;;;;;;22.20;14.60;;;4.40;96.70;;;;;;5013131;28;20175;-74
2020/12/11 01:12:26;;;;;;;23.13;15.80;;;4.20;96.30;;;;;;5012176;28;20174;-73
2020/12/11 01:14:52;;;;;;;22.50;15.33;;;3.90;97.00;;;;;;5000090;28;20693;-73
2020/12/11 01:17:18;;;;;;;22.03;15.40;;;4.10;97.40;;;;;;5011836;28;20187;-73
2020/12/11 01:19:44;;;;;;;19.85;14.27;;;4.30;97.10;;;;;;5012787;28;20773;-75
2020/12/11 01:22:13;;;;;;;21.40;15.20;;;4.60;97.70;;;;;;5012319;28;20262;-73
2020/12/11 01:24:39;;;;;;;21.15;15.75;;;4.50;96.50;;;;;;5012746;28;20264;-73
2020/12/11 01:27:04;;;;;;;22.10;14.57;;;4.40;96.30;;;;;;5012113;28;20226;-73
2020/12/11 01:29:30;;;;;;;24.67;16.83;;;4.50;96.50;;;;;;5001595;28;20297;-74
2020/12/11 01:31:59;;;;;;;22.17;15.60;;;4.40;96.50;;;;;;4999152;28;20559;-72
2020/12/11 01:34:26;;;;;;;23.30;15.23;;;4.50;96.20;;;;;;5011759;28;20252;-73
2020/12/11 01:36:52;;;;;;;25.48;16.40;;;4.60;96.50;;;;;;5012813;28;20210;-73
2020/12/11 01:39:18;;;;;;;23.03;16.27;;;4.70;96.40;;;;;;5012218;28;20221;-73
2020/12/11 01:41:43;;;;;;;22.17;15.87;;;4.90;96.20;;;;;;5011473;28;20415;-73
2020/12/11 01:44:10;;;;;;;21.73;15.03;;;5.10;95.90;;;;;;5011739;28;20179;-73
2020/12/11 01:46:41;;;;;;;19.27;14.77;;;5.20;95.60;;;;;;4996216;28;20187;-73
2020/12/11 01:49:09;;;;;;;22.60;17.45;;;5.30;95.20;;;;;;5011466;28;21798;-73
2020/12/11 01:51:35;;;;;;;24.00;16.55;;;5.10;94.80;;;;;;5012567;28;20248;-73
2020/12/11 01:54:02;;;;;;;24.02;15.45;;;5.10;95.20;;;;;;5009581;28;20202;-74
2020/12/11 01:56:33;;;;;;;24.40;17.00;;;4.90;94.90;;;;;;5011180;28;20202;-73
2020/12/11 01:59:04;;;;;;;24.52;16.60;;;4.60;95.60;;;;;;5011463;28;20189;-73
2020/12/11 02:01:33;;;;;;;24.55;16.10;;;4.60;96.10;;;;;;5002200;28;20177;-73
2020/12/11 02:03:59;;;;;;;25.75;17.15;;;4.50;96.10;;;;;;5010800;28;20535;-73
2020/12/11 02:06:25;;;;;;;25.00;16.70;;;4.70;96.90;;;;;;5010350;28;20175;-73
2020/12/11 02:08:55;;;;;;;22.70;16.00;;;4.60;96.30;;;;;;5011176;28;20282;-73
2020/12/11 02:11:22;;;;;;;21.27;15.70;;;4.60;96.40;;;;;;5010242;28;20796;-73
2020/12/11 02:13:47;;;;;;;23.45;15.93;;;4.70;96.50;;;;;;5010966;28;20209;-73
2020/12/11 02:16:13;;;;;;;23.83;17.17;;;4.70;96.10;;;;;;5010260;28;20183;-73
2020/12/11 02:18:40;;;;;;;26.07;17.60;;;4.50;96.60;;;;;;5011081;28;20174;-73
2020/12/11 02:21:07;;;;;;;24.30;16.48;;;4.40;96.70;;;;;;5010145;28;20181;-73
2020/12/11 02:23:33;;;;;;;25.33;16.40;;;4.40;96.80;;;;;;5011586;28;20193;-73
2020/12/11 02:25:58;;;;;;;20.93;16.30;;;4.40;97.10;;;;;;5011913;28;20691;-73
2020/12/11 02:28:33;;;;;;;23.27;16.47;;;4.50;96.80;;;;;;5011487;28;20197;-73
2020/12/11 02:31:00;;;;;;;22.77;16.63;;;4.40;96.80;;;;;;5012123;28;20425;-73
2020/12/11 02:33:26;;;;;;;21.05;15.65;;;4.40;96.90;;;;;;5011077;28;20193;-73
2020/12/11 02:35:51;;;;;;;24.02;17.77;;;4.30;97.10;;;;;;5012497;28;20207;-73
2020/12/11 02:38:17;;;;;;;23.20;17.10;;;4.50;98.00;;;;;;5011327;28;20206;-73
2020/12/11 02:40:51;;;;;;;25.40;17.03;;;4.60;97.10;;;;;;5012179;28;20422;-73
2020/12/11 02:43:18;;;;;;;25.20;17.77;;;4.60;96.50;;;;;;5009415;28;20228;-73
2020/12/11 02:45:45;;;;;;;22.23;15.65;;;4.40;96.50;;;;;;5011879;28;20273;-73
2020/12/11 02:48:12;;;;;;;24.80;15.80;;;4.50;97.80;;;;;;5011215;28;20194;-73
2020/12/11 02:50:38;;;;;;;25.70;16.38;;;4.50;97.30;;;;;;5012041;28;20267;-73
2020/12/11 02:53:04;;;;;;;24.15;15.80;;;4.60;97.30;;;;;;5011666;28;20662;-74
2020/12/11 02:55:30;;;;;;;26.17;17.67;;;4.60;96.80;;;;;;5011595;28;20182;-73
2020/12/11 02:57:56;;;;;;;21.50;16.17;;;4.40;97.00;;;;;;5015586;28;20178;-73
2020/12/11 03:00:21;;;;;;;26.37;16.60;;;4.50;97.30;;;;;;5013825;28;20195;-73
2020/12/11 03:02:47;;;;;;;22.40;16.80;;;4.60;97.00;;;;;;5015203;28;20183;-73
2020/12/11 03:05:13;;;;;;;22.60;16.50;;;4.60;97.00;;;;;;5013261;28;20186;-73
2020/12/11 03:07:39;;;;;;;23.03;15.63;;;4.40;96.80;;;;;;5015536;28;20317;-73
2020/12/11 03:10:04;;;;;;;21.00;15.83;;;4.60;97.30;;;;;;5015212;28;20429;-74
2020/12/11 03:12:30;;;;;;;24.93;17.37;;;4.80;97.00;;;;;;5014898;28;20183;-73
2020/12/11 03:14:56;;;;;;;21.33;16.40;;;4.80;96.30;;;;;;5015530;28;20270;-73
2020/12/11 03:17:21;;;;;;;22.27;16.20;;;4.80;96.30;;;;;;5014456;28;20210;-73
2020/12/11 03:19:47;;;;;;;23.10;17.07;;;4.90;96.80;;;;;;5015387;28;20214;-73
2020/12/11 03:22:13;;;;;;;20.20;15.80;;;4.90;96.10;;;;;;5014440;28;20250;-73
2020/12/11 03:24:38;;;;;;;21.50;15.40;;;5.00;96.10;;;;;;5015204;28;20326;-73
2020/12/11 03:27:04;;;;;;;19.37;15.10;;;4.90;95.70;;;;;;5014594;28;20187;-75
2020/12/11 03:29:30;;;;;;;24.83;16.00;;;4.90;96.10;;;;;;5014717;28;20616;-73
2020/12/11 03:31:55;;;;;;;22.13;16.03;;;4.90;96.30;;;;;;5015055;28;20194;-73
2020/12/11 03:34:21;;;;;;;21.70;16.30;;;5.00;96.20;;;;;;5014353;28;20604;-73
2020/12/11 03:36:50;;;;;;;20.73;15.10;;;5.20;96.00;;;;;;5015123;28;20218;-74
2020/12/11 03:39:16;;;;;;;19.17;15.23;;;5.20;95.60;;;;;;5014246;28;20179;-74
2020/12/11 03:41:43;;;;;;;18.63;14.17;;;5.30;95.60;;;;;;5014915;28;20179;-73
2020/12/11 03:44:09;;;;;;;19.40;14.80;;;5.50;95.70;;;;;;5014320;28;20415;-75
2020/12/11 03:46:35;;;;;;;18.23;14.70;;;5.30;95.40;;;;;;5013715;28;20187;-74
2020/12/11 03:49:01;;;;;;;18.53;14.70;;;5.40;95.20;;;;;;5015099;28;20221;-74
2020/12/11 03:51:26;;;;;;;21.10;15.17;;;5.50;95.90;;;;;;5014161;28;20434;-74
2020/12/11 03:53:52;;;;;;;19.50;14.73;;;5.60;95.50;;;;;;5014943;28;20465;-74
2020/12/11 03:56:19;;;;;;;19.83;14.60;;;5.60;94.90;;;;;;5014178;28;20195;-73
2020/12/11 03:58:45;;;;;;;17.42;14.07;;;5.70;94.60;;;;;;5014502;28;20179;-73
2020/12/11 04:01:15;;;;;;;20.17;15.02;;;5.70;94.30;;;;;;5013790;28;20741;-74
2020/12/11 04:03:41;;;;;;;19.15;15.00;;;5.50;93.80;;;;;;5014653;28;20175;-73
2020/12/11 04:06:19;;;;;;;18.92;14.32;;;5.40;94.40;;;;;;5014567;28;20538;-75
2020/12/11 04:08:45;;;;;;;18.45;14.20;;;5.30;94.70;;;;;;5014607;28;20521;-69
2020/12/11 04:11:13;;;;;;;17.80;14.23;;;5.30;94.80;;;;;;5013608;28;20179;-70
2020/12/11 04:13:40;;;;;;;20.38;14.95;;;5.10;94.90;;;;;;5014317;28;20254;-69
2020/12/11 04:16:08;;;;;;;19.23;14.52;;;5.10;94.70;;;;;;5014281;28;20191;-68
2020/12/11 04:18:34;;;;;;;18.20;14.50;;;5.20;94.60;;;;;;5014525;28;20171;-69
2020/12/11 04:21:00;;;;;;;18.93;14.10;;;5.10;94.70;;;;;;5014227;28;20178;-69
2020/12/11 04:23:27;;;;;;;17.35;13.35;;;4.90;94.80;;;;;;5013671;28;20289;-69
2020/12/11 04:25:54;;;;;;;15.68;12.82;;;5.00;95.10;;;;;;5012945;28;20235;-69
2020/12/11 04:28:20;;;;;;;15.77;13.32;;;5.00;94.90;;;;;;5013273;28;20183;-69
2020/12/11 04:30:45;;;;;;;14.90;12.97;;;5.20;94.70;;;;;;5014079;28;20278;-69
2020/12/11 04:33:11;;;;;;;15.60;13.17;;;5.00;94.50;;;;;;5013308;28;20461;-70
2020/12/11 04:35:37;;;;;;;16.57;12.90;;;4.80;94.70;;;;;;5013262;28;20798;-69
2020/12/11 04:38:04;;;;;;;17.20;13.00;;;4.70;95.10;;;;;;5013833;28;20182;-69
2020/12/11 04:40:30;;;;;;;17.27;13.20;;;4.70;95.30;;;;;;5012007;28;20178;-69
2020/12/11 04:42:56;;;;;;;17.75;15.02;;;4.80;95.40;;;;;;5014009;28;20187;-69
2020/12/11 04:45:23;;;;;;;16.17;12.48;;;4.80;95.40;;;;;;5013574;28;20282;-69
2020/12/11 04:47:50;;;;;;;16.15;12.75;;;4.70;95.60;;;;;;5011940;28;20183;-69
2020/12/11 04:50:18;;;;;;;14.50;12.35;;;4.60;95.60;;;;;;5013027;28;20171;-69
2020/12/11 04:52:48;;;;;;;16.95;13.60;;;4.70;95.70;;;;;;5012492;28;20624;-69
2020/12/11 04:55:18;;;;;;;18.85;14.68;;;4.60;95.80;;;;;;5013402;28;20183;-69
2020/12/11 04:57:45;;;;;;;16.55;14.00;;;4.40;95.70;;;;;;5013896;28;20165;-69
2020/12/11 05:00:12;;;;;;;16.52;13.02;;;4.70;96.00;;;;;;5013093;28;20672;-69
2020/12/11 05:02:42;;;;;;;15.98;12.00;;;4.70;95.60;;;;;;5013516;28;20179;-69
2020/12/11 05:05:09;;;;;;;16.92;12.38;;;4.80;95.70;;;;;;5013739;28;20183;-69
2020/12/11 05:07:35;;;;;;;17.15;13.85;;;4.50;95.50;;;;;;5013854;28;20167;-69
2020/12/11 05:10:05;;;;;;;14.18;11.48;;;4.60;96.00;;;;;;5013523;28;20187;-69
2020/12/11 05:12:31;;;;;;;16.15;12.77;;;4.70;95.90;;;;;;5012844;28;20616;-69
2020/12/11 05:15:04;;;;;;;15.20;13.05;;;4.80;95.60;;;;;;5013390;28;20682;-69
2020/12/11 05:17:32;;;;;;;15.57;13.20;;;4.90;95.20;;;;;;5013024;28;20436;-69
2020/12/11 05:19:59;;;;;;;19.02;13.50;;;4.70;95.40;;;;;;5012873;28;20646;-69
2020/12/11 05:22:30;;;;;;;17.40;14.32;;;4.70;95.20;;;;;;5012690;28;20221;-69
2020/12/11 05:24:57;;;;;;;20.17;14.85;;;4.80;95.60;;;;;;5013265;28;20227;-69
2020/12/11 05:27:36;;;;;;;16.70;11.93;;;4.80;95.30;;;;;;5012838;28;20185;-69
2020/12/11 05:30:14;;;;;;;19.60;16.20;;;4.50;95.60;;;;;;5013623;28;20184;-69
2020/12/11 05:32:44;;;;;;;15.73;12.65;;;4.40;96.10;;;;;;5013007;28;20171;-68
2020/12/11 05:35:19;;;;;;;18.70;13.90;;;4.40;96.10;;;;;;5013128;28;20190;-69
2020/12/11 05:38:03;;;;;;;16.63;12.95;;;4.40;96.00;;;;;;5013248;28;20530;-69
2020/12/11 05:40:34;;;;;;;16.85;14.23;;;4.50;95.90;;;;;;5002518;28;20195;-69
2020/12/11 05:43:20;;;;;;;16.75;13.07;;;4.30;95.90;;;;;;5012981;28;20170;-69
2020/12/11 05:45:50;;;;;;;17.13;14.43;;;4.40;96.20;;;;;;5012944;28;20509;-69
2020/12/11 05:48:16;;;;;;;15.00;12.80;;;4.50;96.10;;;;;;5012369;28;20174;-69
2020/12/11 05:50:42;;;;;;;16.30;13.37;;;4.30;95.80;;;;;;5013217;28;20187;-69
2020/12/11 05:53:08;;;;;;;15.80;13.30;;;4.40;96.10;;;;;;5013066;28;20599;-68
2020/12/11 05:55:33;;;;;;;14.43;12.30;;;4.40;96.20;;;;;;5010750;28;20233;-69
2020/12/11 05:57:59;;;;;;;15.93;14.23;;;4.10;96.20;;;;;;5006047;28;20218;-68
2020/12/11 06:00:26;;;;;;;17.00;13.17;;;4.30;96.40;;;;;;5011588;28;20535;-69
2020/12/11 06:02:53;;;;;;;16.88;13.40;;;4.40;96.40;;;;;;5012765;28;20191;-69
2020/12/11 06:05:21;;;;;;;15.18;12.75;;;4.50;96.10;;;;;;5012399;28;20521;-69
2020/12/11 06:07:48;;;;;;;16.23;12.75;;;4.60;95.90;;;;;;5012961;28;20214;-69
2020/12/11 06:10:16;;;;;;;18.50;14.20;;;4.40;95.80;;;;;;5012141;28;20187;-69
2020/12/11 06:12:42;;;;;;;16.05;12.52;;;4.50;95.90;;;;;;5004668;28;20187;-70
2020/12/11 06:15:17;;;;;;;15.80;13.38;;;4.60;95.80;;;;;;5010991;28;20585;-69
2020/12/11 06:18:06;;;;;;;14.02;11.90;;;4.80;95.50;;;;;;5012419;28;20181;-69
2020/12/11 06:20:34;;;;;;;15.55;13.15;;;4.60;95.10;;;;;;5012024;28;20175;-69
2020/12/11 06:23:18;;;;;;;15.13;12.60;;;4.70;95.70;;;;;;5012346;28;20261;-69
2020/12/11 06:26:01;;;;;;;16.88;12.18;;;4.90;95.30;;;;;;5012314;28;20585;-69
2020/12/11 06:28:45;;;;;;;14.73;11.98;;;4.80;95.10;;;;;;5007222;28;20195;-71
2020/12/11 06:31:16;;;;;;;15.85;12.48;;;4.90;95.00;;;;;;5009423;28;20617;-69
2020/12/11 06:33:47;;;;;;;16.35;14.00;;;4.80;95.00;;;;;;5014513;28;20293;-69
2020/12/11 06:36:13;;;;;;;15.60;12.00;;;4.80;95.10;;;;;;5014759;28;20228;-70
2020/12/11 06:38:56;;;;;;;15.18;11.75;;;5.00;95.10;;;;;;5016123;28;20650;-69
2020/12/11 06:41:28;;;;;;;14.35;12.10;;;5.00;94.60;;;;;;5015840;28;20159;-69
2020/12/11 06:43:57;;;;;;;14.00;12.50;;;5.00;94.90;;;;;;5016344;28;20179;-69
2020/12/11 06:46:27;;;;;;;13.88;10.52;;;5.00;94.60;;;;;;5003614;28;20179;-69
2020/12/11 06:49:09;;;;;;;15.32;13.00;;;4.80;94.40;;;;;;5016002;28;20209;-69
2020/12/11 06:51:44;;;;;;;16.77;12.60;;;4.90;94.60;;;;;;4997216;28;20194;-69
2020/12/11 06:54:30;;;;;;;16.33;12.48;;;4.80;94.70;;;;;;4996764;28;20195;-69
2020/12/11 06:56:58;;;;;;;13.70;12.20;;;4.80;95.00;;;;;;4989533;28;20188;-69
2020/12/11 06:59:25;;;;;;;15.35;11.38;;;4.90;94.60;;;;;;5001198;28;20171;-69
2020/12/11 07:01:55;;;;;;;16.10;12.18;;;5.00;94.80;;;;;;5004606;28;20179;-71
2020/12/11 07:04:22;;;;;;;16.27;12.70;;;5.10;94.50;;;;;;5015670;28;20631;-69
2020/12/11 07:06:53;;;;;;;13.15;10.40;;;5.10;94.20;;;;;;5015047;28;20183;-69
2020/12/11 07:09:20;;;;;;;15.20;12.20;;;5.00;94.40;;;;;;5014131;28;20607;-69
2020/12/11 07:11:47;;;;;;;14.30;11.80;;;4.90;94.30;;;;;;5015977;28;20171;-69
2020/12/11 07:14:14;;;;;;;14.10;11.52;;;4.90;94.50;;;;;;5015891;28;20642;-69
2020/12/11 07:16:41;;;;;;;13.00;11.43;;;5.00;94.60;;;;;;5015920;28;20225;-69
2020/12/11 07:19:07;;;;;;;13.90;12.20;;;5.00;94.30;;;;;;5015803;28;20176;-68
2020/12/11 07:21:33;;;;;;;16.00;12.20;;;4.90;94.70;;;;;;5015152;28;20179;-68
2020/12/11 07:24:00;;;;;;;12.68;10.35;;;5.10;94.60;;;;;;5015631;28;20179;-69
2020/12/11 07:26:26;;;;;;;13.27;11.77;;;5.00;94.30;;;;;;5014014;28;20171;-68
2020/12/11 07:29:07;;;;;;;14.67;11.67;;;5.10;94.80;;;;;;5014604;28;20175;-69
2020/12/11 07:31:37;;;;;;;13.10;11.70;;;5.20;94.50;;;;;;5013710;28;20175;-68
2020/12/11 07:34:21;;;;;;;14.25;11.85;;;5.10;94.40;;;;;;5014366;28;20285;-69
2020/12/11 07:36:54;;;;;;;13.05;11.73;;;5.30;94.60;;;;;;5014557;28;20222;-69
2020/12/11 07:39:30;;;;;;;13.35;11.43;;;5.40;94.40;;;;;;5013835;28;20171;-69
2020/12/11 07:42:00;;;;;;;16.48;12.20;;;5.50;94.20;;;;;;5013484;28;20685;-69
2020/12/11 07:44:28;;;;;;;15.90;14.30;;;5.40;94.30;;;;;;5013741;28;20195;-69
2020/12/11 07:46:56;;;;;;;12.68;11.07;;;5.30;94.60;;;;;;5014302;28;20180;-69
2020/12/11 07:49:59;;;;;;;12.95;11.02;;;5.40;94.80;;;;;;5013619;28;20167;-69
2020/12/11 07:52:27;;;;;;;13.05;10.02;;;5.40;94.60;;;;;;5011393;28;20597;-69
2020/12/11 07:54:53;;;;;;;14.25;10.70;;;5.50;94.40;;;;;;5014079;28;20202;-69
2020/12/11 07:57:20;;;;;;;13.73;10.90;;;5.30;94.80;;;;;;5013574;28;20230;-69
2020/12/11 08:00:06;;;;;;;16.27;11.88;;;5.20;95.10;;;;;;5012395;28;20179;-69
2020/12/11 08:02:33;;;;;;;11.98;10.38;;;5.30;95.00;;;;;;5012351;28;20183;-69
2020/12/11 08:05:03;;;;;;;12.88;11.10;;;5.20;95.00;;;;;;5013928;28;20183;-69
2020/12/11 08:07:31;;;;;;;13.05;11.35;;;5.20;95.60;;;;;;5013318;28;20175;-69
2020/12/11 08:10:18;;;;;;;13.00;11.50;;;5.40;95.70;;;;;;5013742;28;20183;-69
2020/12/11 08:12:45;;;;;;;11.90;10.70;;;5.40;95.10;;;;;;5013985;28;20163;-69
2020/12/11 08:15:27;;;;;;;13.13;11.73;;;5.60;94.90;;;;;;5013739;28;20187;-69
2020/12/11 08:18:08;;;;;;;13.32;11.93;;;5.50;94.70;;;;;;5013738;28;20526;-69
2020/12/11 08:21:03;;;;;;;14.13;10.95;;;5.50;95.00;;;;;;5013147;28;20160;-69
2020/12/11 08:23:42;;;;;;;12.40;11.00;;;5.50;94.90;;;;;;5004302;28;20537;-69
2020/12/11 08:26:14;;;;;;;13.93;12.47;;;5.50;94.60;;;;;;4992474;28;632422;-68
2020/12/11 08:28:41;;;;;;;12.32;10.95;;;5.40;95.00;;;;;;5013955;28;20168;-69
2020/12/11 08:31:27;;;;;;;13.00;11.70;;;5.60;95.00;;;;;;5014461;28;20179;-69
2020/12/11 08:34:10;;;;;;;13.82;11.90;;;5.90;94.70;;;;;;5012095;28;20221;-69
2020/12/11 08:36:39;;;;;;;11.63;10.02;;;5.80;94.60;;;;;;5013734;28;20186;-68
2020/12/11 08:39:34;;;;;;;12.55;10.98;;;5.90;94.60;;;;;;5014026;28;20179;-69
2020/12/11 08:47:38;;;;;;;11.27;10.07;;;6.10;94.10;;;;;;5013471;28;20176;-69
2020/12/11 08:52:46;;;;;;;10.77;9.47;;;6.70;93.30;;;;;;5014074;28;20494;-69
2020/12/11 08:55:12;;;;;;;11.83;10.63;;;6.90;92.60;;;;;;5013140;28;20422;-69
2020/12/11 08:57:38;;;;;;;13.27;10.80;;;7.00;91.70;;;;;;5013322;28;20232;-69
2020/12/11 09:00:05;;;;;;;11.50;10.30;;;7.10;91.50;;;;;;5013875;28;20665;-69
2020/12/11 09:02:31;;;;;;;13.57;10.77;;;7.40;91.00;;;;;;5013174;28;20421;-69
2020/12/11 09:04:57;;;;;;;11.57;10.00;;;7.60;90.80;;;;;;5013540;28;20916;-69
2020/12/11 09:07:24;;;;;;;13.13;11.77;;;7.70;90.30;;;;;;5013273;28;20416;-69
2020/12/11 09:09:51;;;;;;;13.20;11.90;;;7.30;90.40;;;;;;5013489;28;20432;-68
2020/12/11 09:12:17;;;;;;;12.20;10.67;;;7.00;91.10;;;;;;5013700;28;20429;-69
2020/12/11 09:14:42;;;;;;;11.63;10.43;;;6.90;91.70;;;;;;5011762;28;20456;-69
2020/12/11 09:17:08;;;;;;;11.50;10.40;;;6.90;91.80;;;;;;5013462;28;20438;-69
2020/12/11 09:19:34;;;;;;;11.70;10.40;;;6.90;91.40;;;;;;5012330;28;20189;-69
2020/12/11 09:22:01;;;;;;;11.90;10.80;;;7.20;91.70;;;;;;5013429;28;20183;-69
2020/12/11 09:24:30;;;;;;;12.40;11.30;;;7.60;91.60;;;;;;5012766;28;20678;-69
2020/12/11 09:26:56;;;;;;;11.20;10.10;;;8.00;90.70;;;;;;5013583;28;20667;-69
2020/12/11 09:29:30;;;;;;;13.80;12.53;;;7.90;89.50;;;;;;5012726;28;20409;-70
2020/12/11 09:31:58;;;;;;;11.03;10.03;;;7.70;90.20;;;;;;5013350;28;20923;-69
2020/12/11 09:34:24;;;;;;;10.83;9.73;;;7.70;90.30;;;;;;5012811;28;20509;-69
2020/12/11 09:36:50;;;;;;;11.23;10.20;;;7.70;90.60;;;;;;5013495;28;20440;-69
2020/12/11 09:39:16;;;;;;;11.83;10.50;;;7.70;90.70;;;;;;5013450;28;20394;-69
2020/12/11 09:41:50;;;;;;;10.07;8.47;;;7.60;90.70;;;;;;5012807;28;20421;-69
2020/12/11 09:46:49;;;;;;;9.30;8.40;;;7.20;91.60;;;;;;5012458;28;20751;-69
2020/12/11 09:49:20;;;;;;;12.23;9.23;;;7.20;92.00;;;;;;5013378;28;20169;-68
2020/12/11 09:54:26;;;;;;;9.33;8.27;;;7.20;92.50;;;;;;5013170;28;20442;-69
2020/12/11 09:56:55;;;;;;;10.37;9.37;;;7.10;92.70;;;;;;5013179;28;20380;-69
2020/12/11 09:59:31;;;;;;;10.90;8.73;;;6.90;92.70;;;;;;5013085;28;20866;-68
2020/12/11 10:04:32;;;;;;;10.13;7.27;;;6.80;93.00;;;;;;5012414;28;20403;-69
2020/12/11 10:06:57;;;;;;;10.67;9.67;;;6.60;93.60;;;;;;5012893;28;20377;-69
2020/12/11 10:09:23;;;;;;;10.13;9.33;;;6.70;93.90;;;;;;5027827;28;20604;-71
2020/12/11 10:11:51;;;;;;;9.90;8.80;;;6.80;93.90;;;;;;5012990;28;20180;-69
2020/12/11 10:14:26;;;;;;;10.13;8.60;;;6.60;93.90;;;;;;5013019;28;20837;-69
2020/12/11 10:16:52;;;;;;;10.10;9.10;;;6.90;94.90;;;;;;5012990;28;20403;-69
2020/12/11 10:19:20;;;;;;;10.03;9.10;;;7.60;94.10;;;;;;5012928;28;20882;-69
2020/12/11 10:21:50;;;;;;;9.90;9.00;;;8.80;92.10;;;;;;5012185;28;20760;-69
2020/12/11 10:24:17;;;;;;;11.07;10.17;;;9.60;90.00;;;;;;5012903;28;20466;-69
2020/12/11 10:26:44;;;;;;;11.13;10.30;;;10.10;86.20;;;;;;5012249;28;20403;-69
2020/12/11 10:29:10;;;;;;;9.60;8.70;;;10.20;83.00;;;;;;5012816;28;20736;-69
2020/12/11 10:31:36;;;;;;;11.37;10.47;;;10.20;82.60;;;;;;5012300;28;20437;-69
2020/12/11 10:34:02;;;;;;;9.83;8.70;;;10.30;82.90;;;;;;5012664;28;20446;-69
2020/12/11 10:36:31;;;;;;;9.23;8.43;;;10.80;82.90;;;;;;5012271;28;20396;-69
2020/12/11 10:38:58;;;;;;;9.97;9.13;;;11.30;80.20;;;;;;5012880;28;20400;-69
2020/12/11 10:41:24;;;;;;;10.10;9.40;;;11.50;78.80;;;;;;5012683;28;20409;-69
2020/12/11 10:43:51;;;;;;;9.13;8.23;;;11.60;78.90;;;;;;5012704;28;20404;-69
2020/12/11 10:46:17;;;;;;;10.90;10.00;;;11.40;77.30;;;;;;5012659;28;20891;-69
2020/12/11 10:48:43;;;;;;;9.03;8.13;;;11.30;77.40;;;;;;5012034;28;20416;-69
2020/12/11 10:51:11;;;;;;;8.97;8.17;;;11.00;77.70;;;;;;5012510;28;20501;-69
2020/12/11 10:53:37;;;;;;;10.03;9.17;;;11.00;78.80;;;;;;5011501;28;20441;-69
2020/12/11 10:56:09;;;;;;;9.90;9.00;;;11.00;79.30;;;;;;5012611;28;20407;-69
2020/12/11 10:58:35;;;;;;;10.27;9.37;;;10.70;80.00;;;;;;5011855;28;20524;-69
2020/12/11 11:01:05;;;;;;;9.70;8.80;;;10.10;81.30;;;;;;5012049;28;20402;-69
2020/12/11 11:03:32;;;;;;;11.03;10.03;;;10.00;82.10;;;;;;5011182;28;20422;-69
2020/12/11 11:06:10;;;;;;;10.53;9.53;;;10.00;82.70;;;;;;5012317;28;20395;-69
2020/12/11 11:09:08;;;;;;;9.97;8.97;;;9.30;84.80;;;;;;5011839;28;20395;-69
2020/12/11 11:11:41;;;;;;;9.80;8.87;;;9.40;87.40;;;;;;5011463;28;20433;-69
2020/12/11 11:22:41;;;;;;;10.70;9.80;;;8.80;89.50;;;;;;5014947;28;20410;-69
2020/12/11 11:29:54;;;;;;;10.57;9.47;;;8.60;90.00;;;;;;5015844;28;20464;-69
2020/12/11 11:32:19;;;;;;;9.90;8.93;;;8.70;90.30;;;;;;5015535;28;20409;-69
2020/12/11 11:34:45;;;;;;;9.10;8.27;;;8.70;90.80;;;;;;5014342;28;20244;-69
2020/12/11 11:37:11;;;;;;;9.40;8.50;;;8.30;90.60;;;;;;5015365;28;20190;-69
2020/12/11 11:39:37;;;;;;;10.20;9.20;;;8.20;91.00;;;;;;5030227;28;20179;-69
2020/12/11 11:42:02;;;;;;;10.00;9.00;;;8.40;91.00;;;;;;5015608;28;20183;-69
2020/12/11 11:47:12;;;;;;;11.23;10.23;;;8.60;91.30;;;;;;5015522;28;20167;-69
2020/12/11 11:54:54;;;;;;;9.10;8.27;;;9.10;90.20;;;;;;5015169;28;20580;-69
2020/12/11 11:57:20;;;;;;;11.10;9.10;;;9.00;89.70;;;;;;5015185;28;20941;-68
2020/12/11 11:59:46;;;;;;;9.67;8.77;;;8.50;90.40;;;;;;5014514;28;20189;-69
2020/12/11 12:02:11;;;;;;;10.47;9.30;;;8.30;91.00;;;;;;5013929;28;20256;-69
2020/12/11 12:04:37;;;;;;;10.13;9.20;;;7.90;91.80;;;;;;5014451;28;20264;-69
2020/12/11 12:07:03;;;;;;;10.03;9.03;;;8.10;92.30;;;;;;5015079;28;20240;-69
2020/12/11 12:09:29;;;;;;;9.17;8.30;;;8.20;92.20;;;;;;5014880;28;20258;-69
2020/12/11 12:11:54;;;;;;;10.23;9.13;;;8.20;92.20;;;;;;5014865;28;20213;-69
2020/12/11 12:14:20;;;;;;;9.70;8.80;;;8.20;91.80;;;;;;5014763;28;20472;-69
2020/12/11 12:16:49;;;;;;;11.07;8.83;;;8.00;92.40;;;;;;5014187;28;20236;-69
2020/12/11 12:19:18;;;;;;;9.07;8.17;;;8.20;92.60;;;;;;5014804;28;20939;-69
2020/12/11 12:29:57;;;;;;;9.10;8.20;;;8.50;92.50;;;;;;5014751;28;20394;-69
2020/12/11 12:32:26;;;;;;;11.10;9.87;;;8.50;92.80;;;;;;5014463;28;21004;-69
2020/12/11 12:35:00;;;;;;;10.50;9.50;;;8.50;92.30;;;;;;5013787;28;20430;-69
2020/12/11 12:43:07;;;;;;;9.90;8.93;;;8.40;92.40;;;;;;4994166;28;20167;-70
2020/12/11 12:45:33;;;;;;;9.27;8.37;;;8.40;92.80;;;;;;4994278;28;20412;-71
2020/12/11 12:47:58;;;;;;;9.33;8.30;;;8.40;92.60;;;;;;4994797;28;20425;-70
2020/12/11 12:50:24;;;;;;;8.70;7.80;;;8.40;92.90;;;;;;4994686;28;20179;-70
2020/12/11 12:52:50;;;;;;;8.80;8.00;;;8.50;93.00;;;;;;4994122;28;20217;-70
2020/12/11 12:55:19;;;;;;;9.93;9.03;;;8.20;92.90;;;;;;4994466;28;20250;-68
2020/12/11 12:57:52;;;;;;;9.37;8.47;;;8.00;93.40;;;;;;4993656;28;20442;-69
2020/12/11 13:00:25;;;;;;;9.23;8.33;;;8.00;94.30;;;;;;5007930;28;20406;-69
2020/12/11 13:03:19;;;;;;;9.40;8.40;;;8.00;93.70;;;;;;5011829;28;20830;-69
2020/12/11 13:05:40;;;;;;;9.27;8.27;;;7.90;94.00;;;;;;5009818;28;20892;-71
2020/12/11 13:08:06;;;;;;;9.57;8.07;;;7.90;94.20;;;;;;5012236;28;20420;-69
2020/12/11 13:10:33;;;;;;;8.60;7.30;;;7.90;94.00;;;;;;4994419;28;20398;-69
2020/12/11 13:12:59;;;;;;;9.17;8.27;;;7.90;94.40;;;;;;5011636;28;20511;-69
2020/12/11 13:15:24;;;;;;;8.10;7.33;;;7.90;94.20;;;;;;5012442;28;20448;-68
2020/12/11 13:17:50;;;;;;;9.13;8.23;;;7.70;94.40;;;;;;5011664;28;20486;-68
2020/12/11 13:20:26;;;;;;;8.80;7.97;;;7.70;94.90;;;;;;5012424;28;20188;-69
2020/12/11 13:25:22;;;;;;;9.33;8.43;;;7.70;94.80;;;;;;5010176;28;20271;-69
2020/12/11 13:26:12;;;;;;;9.03;8.03;;;7.50;94.40;;;;;;5009551;28;20434;-69
2020/12/11 13:28:27;;;;;;;9.80;8.80;;;7.60;95.10;;;;;;5013043;28;20495;-69
2020/12/11 13:30:53;;;;;;;8.90;8.00;;;7.90;95.10;;;;;;5012867;28;20409;-69
2020/12/11 13:33:18;;;;;;;10.23;8.87;;;7.80;94.60;;;;;;5013337;28;20475;-68
2020/12/11 13:35:44;;;;;;;9.00;8.10;;;7.70;94.80;;;;;;5012494;28;20180;-70
2020/12/11 13:38:10;;;;;;;9.10;8.20;;;7.90;95.00;;;;;;5013425;28;20217;-68
2020/12/11 13:40:35;;;;;;;9.00;8.20;;;7.90;94.70;;;;;;5011978;28;20188;-68